Time;durP1;ratioP1;P1;durP2;ratioP2;P2;SDS_P1;SDS_P2;PMS_P1;PMS_P2;Temp;Humidity;BMP_temperature;BMP_pressure;BME280_temperature;BME280_humidity;BME280_pressure;Samples;Min_cycle;Max_cycle;Signal;HPM_P1;HPM_P2
2023/10/20 00:01:14;;;;;;;13.68;8.05;;;;;;;;;;10336639;28;20817;-76
2023/10/20 00:06:15;;;;;;;16.27;8.45;;;;;;;;;;10337898;28;20258;-76
2023/10/20 00:11:16;;;;;;;15.13;9.05;;;;;;;;;;10307907;28;20220;-75
2023/10/20 00:16:26;;;;;;;19.77;8.45;;;;;;;;;;10355144;28;20660;-75
2023/10/20 00:21:27;;;;;;;16.85;8.57;;;;;;;;;;10336590;28;20212;-75
2023/10/20 00:26:28;;;;;;;24.27;10.20;;;;;;;;;;10333227;28;20243;-74
2023/10/20 00:31:30;;;;;;;20.23;8.80;;;;;;;;;;10344788;28;20212;-75
2023/10/20 00:36:31;;;;;;;18.30;8.95;;;;;;;;;;10348177;28;20227;-75
2023/10/20 00:41:34;;;;;;;14.70;9.27;;;;;;;;;;10334132;28;20219;-75
2023/10/20 00:46:36;;;;;;;21.65;8.75;;;;;;;;;;10321950;28;20208;-75
2023/10/20 00:51:37;;;;;;;17.45;9.13;;;;;;;;;;10345636;28;20228;-75
2023/10/20 00:56:38;;;;;;;18.55;8.82;;;;;;;;;;10351453;28;20307;-76
2023/10/20 01:01:39;;;;;;;16.52;9.10;;;;;;;;;;10351109;28;20232;-75
2023/10/20 01:06:40;;;;;;;20.42;9.25;;;;;;;;;;10348671;28;20691;-77
2023/10/20 01:11:41;;;;;;;15.73;9.05;;;;;;;;;;10350744;28;20900;-76
2023/10/20 01:16:42;;;;;;;16.30;9.07;;;;;;;;;;10350732;28;20943;-76
2023/10/20 01:21:43;;;;;;;19.00;8.77;;;;;;;;;;10348660;28;20227;-76
2023/10/20 01:26:44;;;;;;;18.23;8.30;;;;;;;;;;10348095;28;20609;-74
2023/10/20 01:31:45;;;;;;;19.05;9.13;;;;;;;;;;10318923;28;20215;-76
2023/10/20 01:36:46;;;;;;;21.17;9.75;;;;;;;;;;10332518;28;20223;-76
2023/10/20 01:41:47;;;;;;;15.85;8.82;;;;;;;;;;10316606;28;23073;-75
2023/10/20 01:46:49;;;;;;;15.60;8.43;;;;;;;;;;10351105;28;20251;-76
2023/10/20 01:51:50;;;;;;;14.25;7.70;;;;;;;;;;10314280;28;20216;-75
2023/10/20 01:56:51;;;;;;;25.20;8.75;;;;;;;;;;10329827;28;20702;-76
2023/10/20 02:01:53;;;;;;;19.38;9.75;;;;;;;;;;10350002;28;20308;-75
2023/10/20 02:06:55;;;;;;;22.45;8.77;;;;;;;;;;10320506;28;20299;-76
2023/10/20 02:11:59;;;;;;;15.43;8.18;;;;;;;;;;10330724;28;20219;-74
2023/10/20 02:17:00;;;;;;;18.63;8.10;;;;;;;;;;10349036;28;20655;-77
2023/10/20 02:22:02;;;;;;;18.50;9.25;;;;;;;;;;10347416;28;20224;-76
2023/10/20 02:27:03;;;;;;;16.92;8.32;;;;;;;;;;10350035;28;20220;-77
2023/10/20 02:32:04;;;;;;;17.33;8.05;;;;;;;;;;10347760;28;20216;-75
2023/10/20 02:37:07;;;;;;;16.25;7.88;;;;;;;;;;10344755;28;20584;-75
2023/10/20 02:42:08;;;;;;;20.65;8.75;;;;;;;;;;10327878;28;20219;-75
2023/10/20 02:47:09;;;;;;;15.95;7.40;;;;;;;;;;10347851;28;20311;-76
2023/10/20 02:52:13;;;;;;;20.52;7.68;;;;;;;;;;10329046;28;20216;-77
2023/10/20 02:57:14;;;;;;;21.63;7.75;;;;;;;;;;10340940;28;20224;-77
2023/10/20 03:02:18;;;;;;;18.05;8.13;;;;;;;;;;10327919;28;20243;-77
2023/10/20 03:07:24;;;;;;;17.15;7.60;;;;;;;;;;10316282;28;20216;-76
2023/10/20 03:12:25;;;;;;;16.25;7.72;;;;;;;;;;10329599;28;20216;-75
2023/10/20 03:17:26;;;;;;;20.15;8.00;;;;;;;;;;10336174;28;20250;-76
2023/10/20 03:22:29;;;;;;;16.55;8.00;;;;;;;;;;10345712;28;20589;-75
2023/10/20 03:27:30;;;;;;;17.73;7.60;;;;;;;;;;10331955;28;20522;-75
2023/10/20 03:32:31;;;;;;;16.88;7.70;;;;;;;;;;10341334;28;20220;-76
2023/10/20 03:37:32;;;;;;;16.58;7.43;;;;;;;;;;10346711;28;20226;-75
2023/10/20 03:42:33;;;;;;;15.35;8.15;;;;;;;;;;10344867;28;20218;-74
2023/10/20 03:47:38;;;;;;;17.85;8.25;;;;;;;;;;10348063;28;20580;-75
2023/10/20 03:52:41;;;;;;;21.65;8.10;;;;;;;;;;10326188;28;20218;-75
2023/10/20 03:57:43;;;;;;;17.50;8.85;;;;;;;;;;10310229;28;20872;-74
2023/10/20 04:02:47;;;;;;;16.95;8.30;;;;;;;;;;10328724;28;20315;-76
2023/10/20 04:07:48;;;;;;;18.02;8.35;;;;;;;;;;10352226;28;20714;-76
2023/10/20 04:12:49;;;;;;;16.35;8.70;;;;;;;;;;10334963;28;20219;-77
2023/10/20 04:17:54;;;;;;;17.27;8.38;;;;;;;;;;10336606;28;20278;-75
2023/10/20 04:22:55;;;;;;;15.38;8.20;;;;;;;;;;10319167;28;20224;-78
2023/10/20 04:29:07;;;;;;;19.95;8.98;;;;;;;;;;10357871;28;20212;-77
2023/10/20 04:49:45;;;;;;;15.98;8.55;;;;;;;;;;10337757;28;20335;-77
2023/10/20 05:10:32;;;;;;;13.80;7.88;;;;;;;;;;10352055;28;20227;-76
2023/10/20 05:15:38;;;;;;;17.80;9.13;;;;;;;;;;10347677;28;20231;-77
2023/10/20 05:20:40;;;;;;;13.13;8.50;;;;;;;;;;10324077;28;20220;-76
2023/10/20 05:25:50;;;;;;;13.45;7.43;;;;;;;;;;10316661;28;20216;-77
2023/10/20 05:30:51;;;;;;;19.95;8.60;;;;;;;;;;10336060;28;20698;-77
2023/10/20 05:35:53;;;;;;;16.42;8.82;;;;;;;;;;10329962;28;20219;-74
2023/10/20 05:40:58;;;;;;;18.48;8.88;;;;;;;;;;10331568;28;20218;-75
2023/10/20 05:45:59;;;;;;;14.38;8.43;;;;;;;;;;10329270;28;20220;-76
2023/10/20 05:51:00;;;;;;;14.25;8.27;;;;;;;;;;10329057;28;20609;-78
2023/10/20 05:56:01;;;;;;;11.73;7.38;;;;;;;;;;10331026;28;20220;-76
2023/10/20 06:01:06;;;;;;;13.85;7.25;;;;;;;;;;10332081;28;20224;-74
2023/10/20 06:06:07;;;;;;;10.80;7.80;;;;;;;;;;10340246;28;20848;-74
2023/10/20 06:11:08;;;;;;;19.88;8.32;;;;;;;;;;10328899;28;20212;-75
2023/10/20 06:16:10;;;;;;;15.65;7.80;;;;;;;;;;10343035;28;20246;-74
2023/10/20 06:21:14;;;;;;;16.92;8.27;;;;;;;;;;10347535;28;20208;-75
2023/10/20 06:26:15;;;;;;;13.18;7.97;;;;;;;;;;10324665;28;20255;-75
2023/10/20 06:36:38;;;;;;;13.65;7.20;;;;;;;;;;10343116;28;20224;-75
2023/10/20 06:41:39;;;;;;;10.05;6.75;;;;;;;;;;10328392;28;20216;-76
2023/10/20 06:46:40;;;;;;;13.02;6.65;;;;;;;;;;10326935;28;20302;-78
2023/10/20 06:51:41;;;;;;;10.88;6.90;;;;;;;;;;10319396;28;20222;-75
2023/10/20 06:56:42;;;;;;;10.38;5.82;;;;;;;;;;10338703;28;20222;-76
2023/10/20 07:01:44;;;;;;;9.85;5.88;;;;;;;;;;10343840;28;20860;-76
2023/10/20 07:06:45;;;;;;;7.32;5.35;;;;;;;;;;10344347;28;20212;-75
2023/10/20 07:11:46;;;;;;;7.78;5.72;;;;;;;;;;10326614;28;20216;-77
2023/10/20 07:16:47;;;;;;;6.95;4.60;;;;;;;;;;10343497;28;20216;-77
2023/10/20 07:21:50;;;;;;;5.97;4.63;;;;;;;;;;10344872;28;20215;-77
2023/10/20 07:26:51;;;;;;;4.90;4.20;;;;;;;;;;10330429;28;20750;-76
2023/10/20 07:31:52;;;;;;;4.43;3.92;;;;;;;;;;10335161;28;20218;-74
2023/10/20 07:36:53;;;;;;;8.07;3.38;;;;;;;;;;10346774;28;20667;-77
2023/10/20 07:41:54;;;;;;;7.10;4.18;;;;;;;;;;10332746;28;20222;-76
2023/10/20 07:46:55;;;;;;;3.70;2.70;;;;;;;;;;10353109;28;20611;-74
2023/10/20 07:51:56;;;;;;;3.03;2.83;;;;;;;;;;10325245;28;20216;-77
2023/10/20 07:56:58;;;;;;;2.83;2.63;;;;;;;;;;10338264;28;20596;-76
2023/10/20 08:01:59;;;;;;;1.92;1.83;;;;;;;;;;10355495;28;20244;-77
2023/10/20 08:07:00;;;;;;;2.60;1.90;;;;;;;;;;10315737;28;20212;-77
2023/10/20 08:12:02;;;;;;;2.30;2.10;;;;;;;;;;10354405;28;20463;-78
2023/10/20 08:17:05;;;;;;;2.47;2.03;;;;;;;;;;10349998;28;20259;-77
2023/10/20 08:22:06;;;;;;;4.05;2.28;;;;;;;;;;10340576;28;20212;-78
2023/10/20 08:27:07;;;;;;;2.25;1.52;;;;;;;;;;10354920;28;20208;-77
2023/10/20 08:32:08;;;;;;;2.00;2.00;;;;;;;;;;10353876;28;20236;-77
2023/10/20 08:37:09;;;;;;;1.77;1.67;;;;;;;;;;10337318;28;20318;-76
2023/10/20 08:42:17;;;;;;;9.18;4.78;;;;;;;;;;10321708;28;20220;-77
2023/10/20 08:47:23;;;;;;;2.00;1.90;;;;;;;;;;10355279;28;20226;-77
2023/10/20 08:52:24;;;;;;;1.63;1.52;;;;;;;;;;10352865;28;20662;-76
2023/10/20 08:57:27;;;;;;;3.33;2.20;;;;;;;;;;10322136;28;20298;-77
2023/10/20 09:02:38;;;;;;;3.90;2.05;;;;;;;;;;10319086;28;20242;-75
2023/10/20 09:07:39;;;;;;;3.15;1.58;;;;;;;;;;10349955;28;20212;-77
2023/10/20 09:12:40;;;;;;;1.83;1.65;;;;;;;;;;10336485;28;20648;-75
2023/10/20 09:17:41;;;;;;;1.90;1.80;;;;;;;;;;10351489;28;20734;-76
2023/10/20 09:22:42;;;;;;;2.45;1.83;;;;;;;;;;10337390;28;20230;-76
2023/10/20 09:27:43;;;;;;;2.20;2.05;;;;;;;;;;10334022;28;20471;-77
2023/10/20 09:32:44;;;;;;;1.80;1.70;;;;;;;;;;10332895;28;20382;-76
2023/10/20 09:37:45;;;;;;;3.13;1.77;;;;;;;;;;10335716;28;20361;-76
2023/10/20 09:42:58;;;;;;;3.90;2.05;;;;;;;;;;10335502;28;20243;-73
2023/10/20 09:48:01;;;;;;;1.92;1.83;;;;;;;;;;10335757;28;20671;-74
2023/10/20 09:53:02;;;;;;;1.83;1.73;;;;;;;;;;10350173;28;20633;-74
2023/10/20 09:58:03;;;;;;;2.25;2.15;;;;;;;;;;10332623;28;20422;-74
2023/10/20 10:03:05;;;;;;;2.60;2.40;;;;;;;;;;10333853;28;20254;-72
2023/10/20 10:08:10;;;;;;;1.77;1.67;;;;;;;;;;10349052;28;20216;-77
2023/10/20 10:13:11;;;;;;;3.40;2.53;;;;;;;;;;10318184;28;20223;-77
2023/10/20 10:18:13;;;;;;;2.22;1.92;;;;;;;;;;10335668;28;20224;-73
2023/10/20 10:23:14;;;;;;;2.10;2.00;;;;;;;;;;10330047;28;20753;-76
2023/10/20 10:28:19;;;;;;;3.03;2.83;;;;;;;;;;10316517;28;20743;-74
2023/10/20 10:33:21;;;;;;;2.47;2.28;;;;;;;;;;10345886;28;20219;-76
2023/10/20 10:38:23;;;;;;;2.25;2.10;;;;;;;;;;10347409;28;20215;-75
2023/10/20 10:43:24;;;;;;;1.98;1.88;;;;;;;;;;10334087;28;20803;-75
2023/10/20 10:48:27;;;;;;;2.25;2.10;;;;;;;;;;10346910;28;20216;-78
2023/10/20 10:53:28;;;;;;;1.58;1.50;;;;;;;;;;10349875;28;20274;-77
2023/10/20 10:58:30;;;;;;;1.73;1.63;;;;;;;;;;10346395;28;20302;-77
2023/10/20 11:03:31;;;;;;;1.80;1.70;;;;;;;;;;10350978;28;20716;-77
2023/10/20 11:08:33;;;;;;;1.30;1.30;;;;;;;;;;10347747;28;20752;-76
2023/10/20 11:13:34;;;;;;;1.42;1.30;;;;;;;;;;10348400;28;20226;-76
2023/10/20 11:18:35;;;;;;;1.08;1.08;;;;;;;;;;10347482;28;20215;-76
2023/10/20 11:23:36;;;;;;;1.40;1.40;;;;;;;;;;10347055;28;20222;-76
2023/10/20 11:28:37;;;;;;;1.30;1.30;;;;;;;;;;10333038;28;20597;-77
2023/10/20 11:33:38;;;;;;;1.13;1.13;;;;;;;;;;10347357;28;20338;-77
2023/10/20 11:38:39;;;;;;;0.85;0.85;;;;;;;;;;10350112;28;20204;-77
2023/10/20 11:43:40;;;;;;;0.90;0.90;;;;;;;;;;10332270;28;20211;-78
2023/10/20 11:48:41;;;;;;;0.65;0.65;;;;;;;;;;10349361;28;20291;-78
2023/10/20 11:53:42;;;;;;;0.85;0.85;;;;;;;;;;10346982;28;20224;-77
2023/10/20 11:58:44;;;;;;;1.10;1.10;;;;;;;;;;10334242;28;20718;-79
2023/10/20 12:03:45;;;;;;;1.00;1.00;;;;;;;;;;10334125;28;20231;-74
2023/10/20 12:08:46;;;;;;;2.15;1.35;;;;;;;;;;10333121;28;20214;-74
2023/10/20 12:13:48;;;;;;;2.88;1.40;;;;;;;;;;10331555;28;20208;-78
2023/10/20 12:18:49;;;;;;;1.92;1.60;;;;;;;;;;10329028;28;20291;-73
2023/10/20 12:23:50;;;;;;;1.17;1.17;;;;;;;;;;10339266;28;20211;-74
2023/10/20 12:28:51;;;;;;;1.75;1.65;;;;;;;;;;10354239;28;20208;-74
2023/10/20 12:33:52;;;;;;;1.55;1.55;;;;;;;;;;10321806;28;20604;-74
2023/10/20 12:38:55;;;;;;;1.35;1.35;;;;;;;;;;10337415;28;20219;-75
2023/10/20 12:43:56;;;;;;;2.30;2.20;;;;;;;;;;10330241;28;20216;-74
2023/10/20 12:48:57;;;;;;;2.28;2.17;;;;;;;;;;10321203;28;20212;-75
2023/10/20 12:53:58;;;;;;;1.63;1.52;;;;;;;;;;10354187;28;20223;-74
2023/10/20 12:59:00;;;;;;;1.40;1.13;;;;;;;;;;10358317;28;20700;-76
2023/10/20 13:04:01;;;;;;;1.30;1.23;;;;;;;;;;10359655;28;20680;-74
2023/10/20 13:09:02;;;;;;;2.33;2.28;;;;;;;;;;10352364;28;20576;-75
2023/10/20 13:14:03;;;;;;;9.50;4.60;;;;;;;;;;10355192;28;20680;-74
2023/10/20 13:19:04;;;;;;;1.80;1.52;;;;;;;;;;10333088;28;20212;-75
2023/10/20 13:24:06;;;;;;;4.38;1.30;;;;;;;;;;10318169;28;20597;-75
2023/10/20 13:29:07;;;;;;;1.67;1.25;;;;;;;;;;10354742;28;20220;-74
2023/10/20 13:34:08;;;;;;;1.75;1.38;;;;;;;;;;10348252;28;20235;-74
2023/10/20 13:39:10;;;;;;;2.72;1.55;;;;;;;;;;10320085;28;20260;-76
2023/10/20 13:44:11;;;;;;;1.50;1.50;;;;;;;;;;10350747;28;20725;-74
2023/10/20 13:49:12;;;;;;;1.20;1.20;;;;;;;;;;10353978;28;20207;-74
2023/10/20 13:54:13;;;;;;;2.63;1.70;;;;;;;;;;10353662;28;20315;-74
2023/10/20 13:59:15;;;;;;;1.35;1.30;;;;;;;;;;10353654;28;20212;-74
2023/10/20 14:04:18;;;;;;;1.60;1.50;;;;;;;;;;10349372;28;20256;-74
2023/10/20 14:09:19;;;;;;;1.13;1.13;;;;;;;;;;10354238;28;21254;-74
2023/10/20 14:14:21;;;;;;;1.38;1.38;;;;;;;;;;10353076;28;20560;-75
2023/10/20 14:19:22;;;;;;;4.50;2.22;;;;;;;;;;10337947;28;20284;-74
2023/10/20 14:24:23;;;;;;;2.45;1.58;;;;;;;;;;10355178;28;20224;-75
2023/10/20 14:29:24;;;;;;;1.98;1.88;;;;;;;;;;10335666;28;20248;-75
2023/10/20 14:34:25;;;;;;;1.90;1.80;;;;;;;;;;10347800;28;20239;-74
2023/10/20 14:39:27;;;;;;;1.20;1.20;;;;;;;;;;10333623;28;20584;-74
2023/10/20 14:44:29;;;;;;;1.40;1.40;;;;;;;;;;10350103;28;20694;-75
2023/10/20 14:49:31;;;;;;;2.05;1.70;;;;;;;;;;10337437;28;20686;-77
2023/10/20 14:54:32;;;;;;;2.92;2.30;;;;;;;;;;10331460;28;20705;-76
2023/10/20 14:59:33;;;;;;;2.30;2.10;;;;;;;;;;10350624;28;21126;-77
2023/10/20 15:04:34;;;;;;;1.90;1.80;;;;;;;;;;10347604;28;20259;-76
2023/10/20 15:09:35;;;;;;;2.08;2.00;;;;;;;;;;10351071;28;20296;-76
2023/10/20 15:14:37;;;;;;;2.42;2.22;;;;;;;;;;10330657;28;20628;-77
2023/10/20 15:19:38;;;;;;;2.03;1.92;;;;;;;;;;10336592;28;20454;-77
2023/10/20 15:24:39;;;;;;;2.28;2.17;;;;;;;;;;10333818;28;20745;-77
2023/10/20 15:29:40;;;;;;;2.47;2.25;;;;;;;;;;10332106;28;20394;-77
2023/10/20 15:34:41;;;;;;;4.68;2.60;;;;;;;;;;10329120;28;20294;-77
2023/10/20 15:39:42;;;;;;;2.88;2.60;;;;;;;;;;10332250;28;20212;-77
2023/10/20 15:44:43;;;;;;;2.22;2.13;;;;;;;;;;10333526;28;20219;-75
2023/10/20 15:49:44;;;;;;;2.28;1.75;;;;;;;;;;10350171;28;20259;-77
2023/10/20 15:54:45;;;;;;;1.75;1.65;;;;;;;;;;10316585;28;20219;-76
2023/10/20 15:59:47;;;;;;;2.88;2.67;;;;;;;;;;10323633;28;20204;-75
2023/10/20 16:04:51;;;;;;;2.25;2.15;;;;;;;;;;10355860;28;20355;-74
2023/10/20 16:09:52;;;;;;;1.92;1.83;;;;;;;;;;10353737;28;20224;-74
2023/10/20 16:14:54;;;;;;;2.05;1.95;;;;;;;;;;10322282;28;20269;-73
2023/10/20 16:19:55;;;;;;;1.95;1.90;;;;;;;;;;10357240;28;20216;-74
2023/10/20 16:24:56;;;;;;;2.10;2.00;;;;;;;;;;10356543;28;20216;-73
2023/10/20 16:30:02;;;;;;;2.10;2.00;;;;;;;;;;10338823;28;20367;-74
2023/10/20 16:35:04;;;;;;;3.17;2.58;;;;;;;;;;10347354;28;20212;-77
2023/10/20 16:40:06;;;;;;;2.45;2.35;;;;;;;;;;10355410;28;20216;-76
2023/10/20 16:45:09;;;;;;;4.65;2.65;;;;;;;;;;10339072;28;20212;-77
2023/10/20 16:50:10;;;;;;;2.40;2.30;;;;;;;;;;10352725;28;20183;-74
2023/10/20 16:55:11;;;;;;;2.38;2.35;;;;;;;;;;10357481;28;20604;-75
2023/10/20 17:00:12;;;;;;;3.55;3.33;;;;;;;;;;10337914;28;20183;-75
2023/10/20 17:05:14;;;;;;;3.22;2.95;;;;;;;;;;10328807;28;20245;-74
2023/10/20 17:10:15;;;;;;;4.70;2.65;;;;;;;;;;10352979;28;20283;-74
2023/10/20 17:15:17;;;;;;;3.45;3.15;;;;;;;;;;10334966;28;20216;-74
2023/10/20 17:20:18;;;;;;;6.18;4.00;;;;;;;;;;10339828;28;20550;-74
2023/10/20 17:25:19;;;;;;;5.75;3.45;;;;;;;;;;10336941;28;20208;-74
2023/10/20 17:30:21;;;;;;;5.70;3.72;;;;;;;;;;10321908;28;20188;-74
2023/10/20 17:35:22;;;;;;;3.45;3.25;;;;;;;;;;10332877;28;20338;-74
2023/10/20 17:40:23;;;;;;;3.40;3.17;;;;;;;;;;10334707;28;20200;-75
2023/10/20 17:45:26;;;;;;;4.30;3.90;;;;;;;;;;10350825;28;20697;-74
2023/10/20 17:50:27;;;;;;;4.35;4.03;;;;;;;;;;10338497;28;20495;-74
2023/10/20 17:55:28;;;;;;;7.30;4.40;;;;;;;;;;10346128;28;20231;-75
2023/10/20 18:00:29;;;;;;;4.88;3.65;;;;;;;;;;10363006;28;20607;-75
2023/10/20 18:05:30;;;;;;;9.20;4.35;;;;;;;;;;10333915;28;20235;-75
2023/10/20 18:10:31;;;;;;;5.57;4.93;;;;;;;;;;10349237;28;20214;-75
2023/10/20 18:15:36;;;;;;;6.72;5.53;;;;;;;;;;10352260;28;20238;-74
2023/10/20 18:20:39;;;;;;;10.77;6.38;;;;;;;;;;10316839;28;20645;-74
2023/10/20 18:25:41;;;;;;;7.38;5.90;;;;;;;;;;10350429;28;20216;-75
2023/10/20 18:30:42;;;;;;;8.23;6.03;;;;;;;;;;10333593;28;20208;-75
2023/10/20 18:35:43;;;;;;;10.10;5.57;;;;;;;;;;10332552;28;20604;-74
2023/10/20 18:40:44;;;;;;;9.52;6.70;;;;;;;;;;10333838;28;20220;-74
2023/10/20 18:46:03;;;;;;;11.55;6.70;;;;;;;;;;10348414;28;20355;-75
2023/10/20 18:51:04;;;;;;;10.43;6.45;;;;;;;;;;10350827;28;20769;-74
2023/10/20 18:56:07;;;;;;;7.65;6.47;;;;;;;;;;10331458;28;20728;-74
2023/10/20 19:01:08;;;;;;;13.40;7.20;;;;;;;;;;10332933;28;20708;-74
2023/10/20 19:06:11;;;;;;;11.82;7.28;;;;;;;;;;10333689;28;20386;-73
2023/10/20 19:11:12;;;;;;;15.63;8.10;;;;;;;;;;10345519;28;20204;-74
2023/10/20 19:16:13;;;;;;;16.90;7.43;;;;;;;;;;10351331;28;20291;-74
2023/10/20 19:21:14;;;;;;;14.57;7.80;;;;;;;;;;10349658;28;20474;-76
2023/10/20 19:26:15;;;;;;;12.60;7.90;;;;;;;;;;10350263;28;20223;-74
2023/10/20 19:31:16;;;;;;;17.48;8.27;;;;;;;;;;10317666;28;20211;-76
2023/10/20 19:36:17;;;;;;;14.05;7.70;;;;;;;;;;10322881;28;20673;-75
2023/10/20 19:41:18;;;;;;;15.02;7.65;;;;;;;;;;10356405;28;20204;-74
2023/10/20 19:46:19;;;;;;;11.05;7.47;;;;;;;;;;10341156;28;20371;-75
2023/10/20 19:51:20;;;;;;;13.45;7.97;;;;;;;;;;10355395;28;20219;-76
2023/10/20 19:56:21;;;;;;;15.38;7.55;;;;;;;;;;10338663;28;20230;-75
2023/10/20 20:01:23;;;;;;;16.42;7.82;;;;;;;;;;10323943;28;20224;-74
2023/10/20 20:06:24;;;;;;;17.88;8.23;;;;;;;;;;10337302;28;20243;-73
2023/10/20 20:11:25;;;;;;;11.80;7.75;;;;;;;;;;10352789;28;20302;-74
2023/10/20 20:16:26;;;;;;;18.00;8.10;;;;;;;;;;10341106;28;20224;-75
2023/10/20 20:21:27;;;;;;;14.20;8.40;;;;;;;;;;10319475;28;20316;-74
2023/10/20 20:26:28;;;;;;;18.92;9.25;;;;;;;;;;10352248;28;20632;-75
2023/10/20 20:31:29;;;;;;;16.73;9.23;;;;;;;;;;10352936;28;20212;-74
2023/10/20 20:36:30;;;;;;;16.98;9.20;;;;;;;;;;10352518;28;20785;-75
2023/10/20 20:41:31;;;;;;;15.07;8.18;;;;;;;;;;10337901;28;20212;-75
2023/10/20 20:46:32;;;;;;;19.25;8.32;;;;;;;;;;10355506;28;20216;-74
2023/10/20 20:51:33;;;;;;;15.68;8.80;;;;;;;;;;10336420;28;20338;-74
2023/10/20 20:56:34;;;;;;;17.08;8.70;;;;;;;;;;10340375;28;20228;-75
2023/10/20 21:01:35;;;;;;;14.95;8.90;;;;;;;;;;10335044;28;20327;-74
2023/10/20 21:06:37;;;;;;;19.05;10.05;;;;;;;;;;10336541;28;20218;-74
2023/10/20 21:11:38;;;;;;;24.08;10.20;;;;;;;;;;10353393;28;20278;-75
2023/10/20 21:16:39;;;;;;;20.05;9.30;;;;;;;;;;10310071;28;20490;-74
2023/10/20 21:21:40;;;;;;;18.15;9.15;;;;;;;;;;10355419;28;20247;-74
2023/10/20 21:26:41;;;;;;;23.42;9.30;;;;;;;;;;10337217;28;20215;-75
2023/10/20 21:31:42;;;;;;;17.20;10.82;;;;;;;;;;10351980;28;20219;-74
2023/10/20 21:36:43;;;;;;;21.45;8.68;;;;;;;;;;10350829;28;20219;-74
2023/10/20 21:41:45;;;;;;;23.02;8.73;;;;;;;;;;10335656;28;20468;-75
2023/10/20 21:46:46;;;;;;;20.98;9.95;;;;;;;;;;10321220;28;20231;-75
2023/10/20 21:51:48;;;;;;;24.65;8.88;;;;;;;;;;10336223;28;20467;-74
2023/10/20 21:56:49;;;;;;;20.05;8.65;;;;;;;;;;10334882;28;20604;-75
2023/10/20 22:01:56;;;;;;;20.00;9.75;;;;;;;;;;10351125;28;20617;-75
2023/10/20 22:06:57;;;;;;;24.60;9.80;;;;;;;;;;10349262;28;20302;-74
2023/10/20 22:11:58;;;;;;;32.90;10.25;;;;;;;;;;10351455;28;20227;-76
2023/10/20 22:16:59;;;;;;;22.90;10.00;;;;;;;;;;10349918;28;20311;-74
2023/10/20 22:22:00;;;;;;;22.05;9.98;;;;;;;;;;10351220;28;20219;-75
2023/10/20 22:27:01;;;;;;;25.25;10.48;;;;;;;;;;10350577;28;20212;-75
2023/10/20 22:32:03;;;;;;;21.92;10.48;;;;;;;;;;10347864;28;20243;-74
2023/10/20 22:37:04;;;;;;;30.67;10.10;;;;;;;;;;10351413;28;20227;-74
2023/10/20 22:42:06;;;;;;;23.65;10.35;;;;;;;;;;10351554;28;20277;-74
2023/10/20 22:47:07;;;;;;;33.15;11.80;;;;;;;;;;10335547;28;20208;-75
2023/10/20 22:52:08;;;;;;;29.88;10.50;;;;;;;;;;10334021;28;20251;-74
2023/10/20 22:57:10;;;;;;;22.52;10.65;;;;;;;;;;10317583;28;20306;-75
2023/10/20 23:02:11;;;;;;;26.75;11.20;;;;;;;;;;10341064;28;20294;-75
2023/10/20 23:07:12;;;;;;;26.80;11.10;;;;;;;;;;10355924;28;20759;-74
2023/10/20 23:12:13;;;;;;;27.05;10.75;;;;;;;;;;10349106;28;20647;-75
2023/10/20 23:17:14;;;;;;;26.55;11.07;;;;;;;;;;10348768;28;20271;-75
2023/10/20 23:22:15;;;;;;;34.72;11.05;;;;;;;;;;10333650;28;20332;-74
2023/10/20 23:27:16;;;;;;;27.45;11.75;;;;;;;;;;10317627;28;20211;-76
2023/10/20 23:32:17;;;;;;;37.53;12.05;;;;;;;;;;10346419;28;20591;-75
2023/10/20 23:37:18;;;;;;;23.67;10.75;;;;;;;;;;10350384;28;20219;-74
2023/10/20 23:42:19;;;;;;;26.73;10.98;;;;;;;;;;10332572;28;20677;-76
2023/10/20 23:47:21;;;;;;;33.33;11.38;;;;;;;;;;10349684;28;20766;-75
2023/10/20 23:52:22;;;;;;;32.42;12.25;;;;;;;;;;10329586;28;20211;-75
2023/10/20 23:57:23;;;;;;;30.83;11.75;;;;;;;;;;10346816;28;20228;-76
